Time;durP1;ratioP1;P1;durP2;ratioP2;P2;SDS_P1;SDS_P2;PMS_P1;PMS_P2;Temp;Humidity;BMP_temperature;BMP_pressure;BME280_temperature;BME280_humidity;BME280_pressure;Samples;Min_cycle;Max_cycle;Signal;HPM_P1;HPM_P2
2022/04/15 00:00:00;;;;;;;;;;;21.80;43.30;;;;;;5143757;27;20294;-47
2022/04/15 00:02:26;;;;;;;;;;;21.80;43.30;;;;;;5139966;27;19992;-48
2022/04/15 00:04:52;;;;;;;;;;;21.90;43.30;;;;;;5149490;27;20378;-51
2022/04/15 00:07:17;;;;;;;;;;;21.70;43.20;;;;;;5144340;27;19961;-47
2022/04/15 00:09:43;;;;;;;;;;;21.30;43.40;;;;;;5148436;27;19955;-57
2022/04/15 00:12:17;;;;;;;;;;;21.00;42.90;;;;;;5146320;27;20397;-49
2022/04/15 00:14:43;;;;;;;;;;;21.10;43.30;;;;;;5144632;27;20362;-47
2022/04/15 00:17:09;;;;;;;;;;;21.30;44.00;;;;;;5149616;27;19923;-47
2022/04/15 00:19:35;;;;;;;;;;;21.30;44.20;;;;;;5140152;27;19930;-47
2022/04/15 00:22:00;;;;;;;;;;;21.30;44.70;;;;;;5142206;27;19930;-48
2022/04/15 00:24:26;;;;;;;;;;;21.40;44.70;;;;;;5149626;27;19931;-46
2022/04/15 00:26:52;;;;;;;;;;;21.40;44.50;;;;;;5124984;27;19972;-47
2022/04/15 00:29:18;;;;;;;;;;;21.60;44.20;;;;;;5144038;27;20294;-49
2022/04/15 00:31:43;;;;;;;;;;;21.50;44.00;;;;;;5149689;27;19935;-47
2022/04/15 00:34:09;;;;;;;;;;;21.70;43.60;;;;;;5143904;27;19923;-47
2022/04/15 00:36:35;;;;;;;;;;;21.70;43.40;;;;;;5130395;27;19923;-49
2022/04/15 00:39:01;;;;;;;;;;;21.80;43.20;;;;;;5138945;27;20395;-47
2022/04/15 00:41:26;;;;;;;;;;;21.70;43.10;;;;;;5143425;27;19971;-47
2022/04/15 00:43:53;;;;;;;;;;;21.80;43.10;;;;;;5149160;27;19970;-46
2022/04/15 00:46:19;;;;;;;;;;;21.80;43.10;;;;;;5143504;27;19929;-47
2022/04/15 00:48:44;;;;;;;;;;;21.80;43.60;;;;;;5143806;27;20310;-47
2022/04/15 00:51:11;;;;;;;;;;;21.70;43.90;;;;;;5149096;27;19927;-47
2022/04/15 00:53:38;;;;;;;;;;;21.70;43.90;;;;;;5143580;27;19933;-48
2022/04/15 00:56:06;;;;;;;;;;;21.80;43.60;;;;;;5145401;27;19929;-48
2022/04/15 00:58:32;;;;;;;;;;;21.80;43.60;;;;;;5141816;27;19922;-47
2022/04/15 01:01:01;;;;;;;;;;;21.80;43.30;;;;;;5143466;27;20321;-48
2022/04/15 01:03:28;;;;;;;;;;;21.80;43.20;;;;;;5148968;27;19929;-47
2022/04/15 01:05:55;;;;;;;;;;;21.80;43.20;;;;;;5143479;27;19923;-46
2022/04/15 01:08:22;;;;;;;;;;;21.80;43.20;;;;;;5143274;27;20013;-50
2022/04/15 01:10:48;;;;;;;;;;;21.80;43.50;;;;;;5148837;27;20674;-48
2022/04/15 01:13:14;;;;;;;;;;;21.70;43.80;;;;;;5124805;27;19926;-48
2022/04/15 01:15:40;;;;;;;;;;;21.70;43.80;;;;;;5138562;27;20483;-56
2022/04/15 01:18:06;;;;;;;;;;;21.80;43.60;;;;;;5148320;27;19927;-48
2022/04/15 01:20:32;;;;;;;;;;;21.80;43.50;;;;;;5139060;27;20397;-47
2022/04/15 01:23:07;;;;;;;;;;;21.80;43.50;;;;;;5148461;27;19930;-47
2022/04/15 01:25:32;;;;;;;;;;;21.80;43.20;;;;;;5143114;27;19970;-48
2022/04/15 01:27:59;;;;;;;;;;;21.90;43.00;;;;;;5143059;27;19923;-46
2022/04/15 01:30:24;;;;;;;;;;;21.90;43.10;;;;;;5148546;27;20100;-47
2022/04/15 01:32:50;;;;;;;;;;;21.70;43.50;;;;;;5139267;27;19940;-47
2022/04/15 01:35:16;;;;;;;;;;;21.80;43.60;;;;;;5140312;27;19994;-47
2022/04/15 01:37:42;;;;;;;;;;;21.70;43.70;;;;;;5148276;27;20304;-47
2022/04/15 01:40:08;;;;;;;;;;;21.80;43.50;;;;;;5142705;27;19971;-47
2022/04/15 01:42:34;;;;;;;;;;;21.80;43.60;;;;;;5147953;27;19922;-52
2022/04/15 01:45:00;;;;;;;;;;;21.80;43.30;;;;;;5143368;27;19924;-47
2022/04/15 01:47:26;;;;;;;;;;;21.80;43.30;;;;;;5142709;27;19923;-50
2022/04/15 01:49:52;;;;;;;;;;;21.80;43.30;;;;;;5148074;27;19939;-47
2022/04/15 01:52:18;;;;;;;;;;;21.80;43.20;;;;;;5137604;27;20022;-48
2022/04/15 01:54:45;;;;;;;;;;;21.80;43.30;;;;;;5142149;27;20351;-46
2022/04/15 01:57:11;;;;;;;;;;;21.80;43.70;;;;;;5147934;27;20014;-48
2022/04/15 01:59:37;;;;;;;;;;;21.80;43.50;;;;;;5142652;27;19930;-47
2022/04/15 02:02:04;;;;;;;;;;;21.80;43.50;;;;;;5144480;27;20001;-54
2022/04/15 02:04:30;;;;;;;;;;;21.80;43.50;;;;;;5146464;27;20259;-48
2022/04/15 02:06:55;;;;;;;;;;;21.90;43.10;;;;;;5142457;27;19933;-47
2022/04/15 02:09:21;;;;;;;;;;;21.90;43.10;;;;;;5144586;27;19923;-47
2022/04/15 02:11:47;;;;;;;;;;;21.90;43.00;;;;;;5140334;27;19979;-47
2022/04/15 02:14:13;;;;;;;;;;;21.70;43.20;;;;;;5142289;27;19934;-47
2022/04/15 02:16:39;;;;;;;;;;;20.90;43.50;;;;;;5147508;27;20423;-47
2022/04/15 02:19:05;;;;;;;;;;;20.80;43.10;;;;;;5142061;27;19935;-46
2022/04/15 02:21:30;;;;;;;;;;;21.00;44.30;;;;;;5142046;27;19927;-49
2022/04/15 02:23:56;;;;;;;;;;;21.10;45.80;;;;;;5147672;27;20306;-48
2022/04/15 02:26:22;;;;;;;;;;;21.30;45.40;;;;;;5142091;27;19966;-46
2022/04/15 02:28:48;;;;;;;;;;;21.50;44.80;;;;;;5142473;27;19960;-48
2022/04/15 02:31:14;;;;;;;;;;;21.50;44.80;;;;;;5141349;27;19971;-47
2022/04/15 02:33:39;;;;;;;;;;;21.50;44.60;;;;;;5141836;27;19934;-47
2022/04/15 02:36:05;;;;;;;;;;;21.60;44.40;;;;;;5147269;27;19923;-49
2022/04/15 02:38:31;;;;;;;;;;;21.60;44.20;;;;;;5123451;27;19927;-48
2022/04/15 02:40:57;;;;;;;;;;;21.50;44.30;;;;;;5142029;27;19927;-47
2022/04/15 02:43:25;;;;;;;;;;;21.60;44.20;;;;;;5128803;27;19923;-47
2022/04/15 02:45:51;;;;;;;;;;;21.60;44.10;;;;;;5139098;27;20029;-50
2022/04/15 02:48:16;;;;;;;;;;;21.60;44.10;;;;;;5143379;27;19950;-47
2022/04/15 02:50:42;;;;;;;;;;;21.60;44.10;;;;;;5141762;27;19927;-47
2022/04/15 02:53:08;;;;;;;;;;;21.50;44.10;;;;;;5141618;27;19930;-47
2022/04/15 02:55:34;;;;;;;;;;;21.60;43.90;;;;;;5147084;27;19927;-50
2022/04/15 02:57:59;;;;;;;;;;;21.60;43.90;;;;;;5141633;27;19923;-46
2022/04/15 03:00:25;;;;;;;;;;;21.60;44.00;;;;;;5141477;27;20006;-46
2022/04/15 03:02:51;;;;;;;;;;;21.60;43.90;;;;;;5147032;27;20389;-47
2022/04/15 03:05:17;;;;;;;;;;;21.70;43.90;;;;;;5137196;27;19987;-46
2022/04/15 03:07:42;;;;;;;;;;;21.60;44.10;;;;;;5146207;27;19924;-51
2022/04/15 03:10:09;;;;;;;;;;;21.70;43.90;;;;;;5141787;27;19930;-47
2022/04/15 03:12:35;;;;;;;;;;;21.70;43.90;;;;;;5141569;27;20416;-47
2022/04/15 03:15:01;;;;;;;;;;;21.60;44.00;;;;;;5146850;27;19949;-47
2022/04/15 03:17:27;;;;;;;;;;;21.70;43.80;;;;;;5141529;27;19930;-47
2022/04/15 03:19:53;;;;;;;;;;;21.70;43.90;;;;;;5141435;27;20160;-46
2022/04/15 03:22:19;;;;;;;;;;;21.60;44.00;;;;;;5145042;27;19934;-48
2022/04/15 03:24:45;;;;;;;;;;;21.60;43.90;;;;;;5137428;27;19966;-47
2022/04/15 03:27:11;;;;;;;;;;;21.60;44.00;;;;;;5143666;27;20873;-56
2022/04/15 03:29:37;;;;;;;;;;;21.70;43.80;;;;;;5144311;27;19923;-48
2022/04/15 03:32:03;;;;;;;;;;;21.70;43.80;;;;;;5141191;27;19927;-47
2022/04/15 03:34:29;;;;;;;;;;;21.70;43.80;;;;;;5146694;27;19923;-48
2022/04/15 03:36:55;;;;;;;;;;;21.70;43.70;;;;;;5140986;27;20003;-47
2022/04/15 03:39:20;;;;;;;;;;;21.70;43.70;;;;;;5141084;27;20298;-47
2022/04/15 03:41:46;;;;;;;;;;;21.70;43.70;;;;;;5142529;27;19930;-47
2022/04/15 03:44:12;;;;;;;;;;;21.70;43.80;;;;;;5139671;27;19988;-48
2022/04/15 03:46:38;;;;;;;;;;;21.70;43.80;;;;;;5141254;27;19923;-52
2022/04/15 03:49:04;;;;;;;;;;;21.70;43.80;;;;;;5146491;27;19924;-50
2022/04/15 03:51:30;;;;;;;;;;;21.70;43.90;;;;;;5140902;27;20410;-47
2022/04/15 03:53:56;;;;;;;;;;;21.70;43.90;;;;;;5146369;27;19936;-47
2022/04/15 03:56:22;;;;;;;;;;;21.70;43.80;;;;;;5140900;27;19923;-47
2022/04/15 03:58:48;;;;;;;;;;;21.70;43.90;;;;;;5141284;27;19930;-49
2022/04/15 04:01:13;;;;;;;;;;;21.70;43.80;;;;;;5145263;27;19927;-50
2022/04/15 04:03:39;;;;;;;;;;;21.70;43.80;;;;;;5144143;27;19930;-46
2022/04/15 04:06:05;;;;;;;;;;;21.70;43.80;;;;;;5144428;27;20413;-47
2022/04/15 04:08:30;;;;;;;;;;;21.70;43.70;;;;;;5131328;27;19927;-46
2022/04/15 04:10:56;;;;;;;;;;;21.70;43.70;;;;;;5144378;27;19927;-47
2022/04/15 04:13:22;;;;;;;;;;;21.70;43.80;;;;;;5149741;27;19927;-46
2022/04/15 04:15:48;;;;;;;;;;;21.60;43.90;;;;;;5143935;27;19923;-46
2022/04/15 04:18:14;;;;;;;;;;;21.80;43.60;;;;;;5140441;27;19927;-45
2022/04/15 04:20:40;;;;;;;;;;;21.20;43.90;;;;;;5147625;27;19943;-46
2022/04/15 04:23:06;;;;;;;;;;;20.80;43.60;;;;;;5143912;27;20420;-46
2022/04/15 04:25:32;;;;;;;;;;;20.60;43.40;;;;;;5143921;27;20043;-46
2022/04/15 04:27:58;;;;;;;;;;;21.30;45.10;;;;;;5130996;27;20033;-59
2022/04/15 04:30:23;;;;;;;;;;;21.80;43.90;;;;;;5143864;27;19930;-61
2022/04/15 04:32:49;;;;;;;;;;;21.40;44.30;;;;;;5149330;27;19923;-63
2022/04/15 04:35:16;;;;;;;;;;;21.30;44.40;;;;;;5143798;27;20034;-59
2022/04/15 04:37:43;;;;;;;;;;;21.30;44.40;;;;;;5138733;27;19930;-59
2022/04/15 04:40:09;;;;;;;;;;;21.30;44.40;;;;;;5149064;27;19929;-61
2022/04/15 04:42:34;;;;;;;;;;;21.10;44.60;;;;;;5143751;27;20378;-60
2022/04/15 04:45:01;;;;;;;;;;;21.10;44.70;;;;;;5143676;27;20851;-61
2022/04/15 04:47:27;;;;;;;;;;;21.00;44.80;;;;;;5149203;27;19923;-61
2022/04/15 04:49:52;;;;;;;;;;;21.10;44.70;;;;;;5143788;27;20289;-58
2022/04/15 04:52:18;;;;;;;;;;;20.90;45.00;;;;;;5147147;27;19927;-58
2022/04/15 04:54:44;;;;;;;;;;;21.10;44.50;;;;;;5142291;27;19930;-59
2022/04/15 04:57:10;;;;;;;;;;;21.10;44.50;;;;;;5141396;27;19980;-60
2022/04/15 04:59:36;;;;;;;;;;;21.20;44.40;;;;;;5148966;27;20385;-60
2022/04/15 05:02:01;;;;;;;;;;;21.10;44.50;;;;;;5143340;27;19927;-60
2022/04/15 05:04:27;;;;;;;;;;;21.10;44.50;;;;;;5143661;27;20021;-61
2022/04/15 05:06:53;;;;;;;;;;;21.10;44.70;;;;;;5130647;27;20052;-61
2022/04/15 05:09:20;;;;;;;;;;;21.10;44.60;;;;;;5143452;27;20274;-61
2022/04/15 05:11:46;;;;;;;;;;;21.10;44.70;;;;;;5143239;27;20400;-57
2022/04/15 05:14:12;;;;;;;;;;;21.10;44.80;;;;;;5143263;27;19924;-61
2022/04/15 05:16:38;;;;;;;;;;;21.10;44.80;;;;;;5142683;27;19923;-60
2022/04/15 05:19:03;;;;;;;;;;;21.10;44.90;;;;;;5130082;27;19931;-59
2022/04/15 05:21:29;;;;;;;;;;;21.10;44.90;;;;;;5143069;27;20325;-58
2022/04/15 05:23:55;;;;;;;;;;;20.90;45.30;;;;;;5122835;27;19930;-61
2022/04/15 05:26:21;;;;;;;;;;;21.10;45.00;;;;;;5148469;27;19944;-54
2022/04/15 05:28:47;;;;;;;;;;;21.00;45.40;;;;;;5143121;27;20028;-63
2022/04/15 05:31:12;;;;;;;;;;;21.20;44.80;;;;;;5140606;27;20003;-53
2022/04/15 05:33:38;;;;;;;;;;;21.00;45.40;;;;;;5145495;27;19927;-58
2022/04/15 05:36:04;;;;;;;;;;;21.10;45.00;;;;;;5124291;27;19976;-60
2022/04/15 05:38:30;;;;;;;;;;;21.00;45.10;;;;;;5148253;27;19927;-61
2022/04/15 05:40:56;;;;;;;;;;;21.10;45.00;;;;;;5142625;27;20298;-61
2022/04/15 05:43:21;;;;;;;;;;;21.20;44.60;;;;;;5142833;27;19967;-60
2022/04/15 05:45:47;;;;;;;;;;;21.00;44.90;;;;;;5148296;27;19948;-60
2022/04/15 05:48:14;;;;;;;;;;;21.00;44.80;;;;;;5142652;27;19923;-59
2022/04/15 05:50:40;;;;;;;;;;;21.20;44.60;;;;;;5138073;27;20165;-59
2022/04/15 05:53:06;;;;;;;;;;;21.10;44.70;;;;;;5147216;27;20350;-62
2022/04/15 05:55:33;;;;;;;;;;;21.10;44.70;;;;;;5142578;27;19923;-60
2022/04/15 05:57:59;;;;;;;;;;;21.10;44.60;;;;;;5148241;27;20021;-61
2022/04/15 06:00:24;;;;;;;;;;;21.10;44.70;;;;;;5142647;27;19971;-60
2022/04/15 06:02:50;;;;;;;;;;;21.00;44.70;;;;;;5142629;27;19963;-60
2022/04/15 06:05:16;;;;;;;;;;;21.00;44.80;;;;;;5148081;27;19923;-60
2022/04/15 06:07:42;;;;;;;;;;;21.10;44.60;;;;;;5140713;27;19951;-59
2022/04/15 06:10:08;;;;;;;;;;;21.10;44.60;;;;;;5119379;27;20028;-60
2022/04/15 06:12:57;;;;;;;;;;;21.10;44.70;;;;;;5147709;27;19927;-62
2022/04/15 06:15:23;;;;;;;;;;;21.10;44.80;;;;;;5142291;27;19927;-59
2022/04/15 06:17:49;;;;;;;;;;;21.10;44.70;;;;;;5142440;27;20233;-59
2022/04/15 06:20:15;;;;;;;;;;;21.20;44.70;;;;;;5147708;27;19963;-60
2022/04/15 06:22:42;;;;;;;;;;;21.10;44.70;;;;;;5141992;27;19942;-60
2022/04/15 06:25:08;;;;;;;;;;;21.20;44.90;;;;;;5147414;27;19927;-59
2022/04/15 06:27:34;;;;;;;;;;;21.10;44.80;;;;;;5137523;27;19945;-61
2022/04/15 06:30:00;;;;;;;;;;;21.10;44.80;;;;;;5141215;27;19966;-60
2022/04/15 06:32:26;;;;;;;;;;;21.20;44.70;;;;;;5147276;27;19931;-60
2022/04/15 06:34:51;;;;;;;;;;;21.10;44.80;;;;;;5141823;27;19973;-60
2022/04/15 06:37:17;;;;;;;;;;;21.00;45.00;;;;;;5141965;27;20178;-61
2022/04/15 06:39:45;;;;;;;;;;;21.10;45.20;;;;;;5147324;27;19927;-59
2022/04/15 06:42:11;;;;;;;;;;;21.10;45.20;;;;;;5141865;27;19934;-60
2022/04/15 06:44:37;;;;;;;;;;;21.20;45.10;;;;;;5141712;27;19937;-60
2022/04/15 06:47:03;;;;;;;;;;;21.30;44.90;;;;;;5142338;27;19923;-60
2022/04/15 06:49:29;;;;;;;;;;;21.30;44.70;;;;;;5141786;27;19975;-60
2022/04/15 06:51:54;;;;;;;;;;;21.30;44.80;;;;;;5147301;27;19923;-62
2022/04/15 06:54:20;;;;;;;;;;;21.30;44.90;;;;;;5141942;27;19923;-62
2022/04/15 06:56:46;;;;;;;;;;;21.40;44.90;;;;;;5141581;27;19923;-60
2022/04/15 06:59:12;;;;;;;;;;;21.40;44.80;;;;;;5146893;27;19934;-61
2022/04/15 07:01:37;;;;;;;;;;;21.50;44.80;;;;;;5123065;27;20278;-61
2022/04/15 07:04:03;;;;;;;;;;;21.40;44.90;;;;;;5137290;27;19934;-59
2022/04/15 07:06:29;;;;;;;;;;;21.50;44.80;;;;;;5145848;27;19931;-60
2022/04/15 07:08:55;;;;;;;;;;;21.50;45.10;;;;;;5141367;27;19973;-63
2022/04/15 07:11:20;;;;;;;;;;;21.60;44.60;;;;;;5128580;27;19992;-62
2022/04/15 07:13:46;;;;;;;;;;;21.60;44.50;;;;;;5141513;27;19931;-62
2022/04/15 07:16:13;;;;;;;;;;;21.60;44.40;;;;;;5122873;27;19973;-62
2022/04/15 07:18:38;;;;;;;;;;;21.60;44.20;;;;;;5147046;27;20017;-60
2022/04/15 07:21:04;;;;;;;;;;;21.60;44.00;;;;;;5139814;27;19934;-62
2022/04/15 07:23:30;;;;;;;;;;;21.60;43.80;;;;;;5137225;27;19927;-60
2022/04/15 07:25:56;;;;;;;;;;;21.70;43.60;;;;;;5146722;27;20491;-61
2022/04/15 07:28:21;;;;;;;;;;;21.70;43.40;;;;;;5141462;27;20286;-60
2022/04/15 07:30:47;;;;;;;;;;;21.70;43.50;;;;;;5146734;27;19923;-62
2022/04/15 07:33:13;;;;;;;;;;;21.80;43.50;;;;;;5141073;27;19963;-60
2022/04/15 07:35:39;;;;;;;;;;;21.70;43.60;;;;;;5144708;27;20638;-60
2022/04/15 07:38:04;;;;;;;;;;;21.80;43.00;;;;;;5131496;27;19928;-61
2022/04/15 07:40:30;;;;;;;;;;;21.80;43.20;;;;;;5140857;27;20030;-61
2022/04/15 07:42:59;;;;;;;;;;;21.80;43.20;;;;;;5143173;27;19946;-59
2022/04/15 07:45:25;;;;;;;;;;;21.80;43.40;;;;;;5150232;27;19974;-62
2022/04/15 07:47:51;;;;;;;;;;;21.70;44.00;;;;;;5144649;27;19927;-60
2022/04/15 07:50:22;;;;;;;;;;;21.80;44.00;;;;;;5150008;27;19923;-63
2022/04/15 07:52:47;;;;;;;;;;;21.80;43.90;;;;;;5146531;27;19926;-62
2022/04/15 07:55:13;;;;;;;;;;;21.80;44.00;;;;;;5144415;27;19923;-59
2022/04/15 07:57:39;;;;;;;;;;;21.80;43.90;;;;;;5149300;27;19934;-61
2022/04/15 08:00:05;;;;;;;;;;;21.80;43.90;;;;;;5121345;27;19932;-61
2022/04/15 08:02:31;;;;;;;;;;;21.80;44.10;;;;;;5144255;27;19944;-60
2022/04/15 08:04:57;;;;;;;;;;;21.80;44.10;;;;;;5150094;27;19931;-61
2022/04/15 08:07:24;;;;;;;;;;;21.80;44.00;;;;;;5144597;27;19922;-62
2022/04/15 08:09:50;;;;;;;;;;;21.80;43.80;;;;;;5145437;27;21367;-58
2022/04/15 08:12:15;;;;;;;;;;;21.80;43.70;;;;;;5149399;27;20005;-60
2022/04/15 08:14:41;;;;;;;;;;;21.90;43.60;;;;;;5144305;27;20378;-61
2022/04/15 08:17:07;;;;;;;;;;;21.90;43.40;;;;;;5145744;27;20378;-60
2022/04/15 08:19:35;;;;;;;;;;;21.90;42.90;;;;;;5142457;27;20383;-62
2022/04/15 08:22:01;;;;;;;;;;;22.00;42.60;;;;;;5144025;27;19923;-61
2022/04/15 08:24:28;;;;;;;;;;;22.00;42.20;;;;;;5149600;27;19923;-61
2022/04/15 08:26:56;;;;;;;;;;;22.00;41.90;;;;;;5144101;27;19941;-61
2022/04/15 08:29:22;;;;;;;;;;;22.10;41.80;;;;;;5144130;27;20221;-61
2022/04/15 08:31:47;;;;;;;;;;;22.10;41.60;;;;;;5149425;27;19923;-61
2022/04/15 08:34:13;;;;;;;;;;;22.10;41.80;;;;;;5143791;27;19950;-61
2022/04/15 08:36:39;;;;;;;;;;;22.10;41.40;;;;;;5144231;27;19930;-62
2022/04/15 08:39:06;;;;;;;;;;;22.20;41.10;;;;;;5143710;27;19923;-61
2022/04/15 08:41:33;;;;;;;;;;;22.10;40.80;;;;;;5143917;27;19923;-61
2022/04/15 08:43:59;;;;;;;;;;;22.10;40.90;;;;;;5128896;27;19930;-61
2022/04/15 08:46:25;;;;;;;;;;;22.10;40.80;;;;;;5142175;27;20284;-62
2022/04/15 08:48:51;;;;;;;;;;;22.10;40.80;;;;;;5143693;27;19989;-60
2022/04/15 08:51:17;;;;;;;;;;;22.20;40.80;;;;;;5149134;27;19927;-62
2022/04/15 08:53:43;;;;;;;;;;;22.10;40.90;;;;;;5140081;27;19984;-61
2022/04/15 08:56:08;;;;;;;;;;;22.10;41.10;;;;;;5145991;27;19923;-60
2022/04/15 08:58:35;;;;;;;;;;;22.20;41.30;;;;;;5144893;27;19966;-60
2022/04/15 09:01:01;;;;;;;;;;;22.20;41.40;;;;;;5143554;27;20523;-62
2022/04/15 09:03:28;;;;;;;;;;;22.20;41.40;;;;;;5149002;27;19927;-62
2022/04/15 09:05:54;;;;;;;;;;;22.20;41.20;;;;;;5143514;27;19927;-63
2022/04/15 09:08:20;;;;;;;;;;;22.30;41.30;;;;;;5143603;27;20018;-60
2022/04/15 09:10:53;;;;;;;;;;;22.20;41.10;;;;;;5148895;27;20286;-60
2022/04/15 09:13:20;;;;;;;;;;;22.20;40.80;;;;;;5138103;27;20034;-60
2022/04/15 09:15:46;;;;;;;;;;;22.30;40.40;;;;;;5142975;27;20010;-61
2022/04/15 09:18:26;;;;;;;;;;;22.30;40.40;;;;;;5148722;27;19980;-63
2022/04/15 09:20:52;;;;;;;;;;;22.30;40.30;;;;;;5143217;27;20324;-58
2022/04/15 09:23:19;;;;;;;;;;;22.30;40.30;;;;;;5127684;27;19988;-60
2022/04/15 09:25:46;;;;;;;;;;;22.40;40.10;;;;;;5146467;27;19923;-60
2022/04/15 09:28:12;;;;;;;;;;;22.40;39.90;;;;;;5142900;27;19923;-61
2022/04/15 09:30:41;;;;;;;;;;;22.40;39.90;;;;;;5144785;27;19952;-59
2022/04/15 09:33:09;;;;;;;;;;;22.50;39.70;;;;;;5141554;27;19927;-58
2022/04/15 09:35:34;;;;;;;;;;;21.90;40.00;;;;;;5142800;27;19923;-59
2022/04/15 09:38:03;;;;;;;;;;;21.10;41.40;;;;;;5148257;27;19922;-58
2022/04/15 09:40:31;;;;;;;;;;;21.40;41.30;;;;;;5142862;27;21120;-60
2022/04/15 09:42:57;;;;;;;;;;;21.50;41.00;;;;;;5142921;27;19931;-60
2022/04/15 09:45:23;;;;;;;;;;;21.60;40.70;;;;;;5148501;27;20025;-58
2022/04/15 09:47:57;;;;;;;;;;;21.60;40.60;;;;;;5142134;27;19929;-60
2022/04/15 09:50:25;;;;;;;;;;;21.60;40.50;;;;;;5141429;27;19923;-56
2022/04/15 09:52:53;;;;;;;;;;;21.60;40.80;;;;;;5145974;27;19934;-61
2022/04/15 09:55:20;;;;;;;;;;;21.60;40.70;;;;;;5142640;27;20573;-59
2022/04/15 09:57:49;;;;;;;;;;;21.60;40.80;;;;;;5147847;27;19938;-58
2022/04/15 10:00:15;;;;;;;;;;;21.60;40.80;;;;;;5142850;27;20626;-59
2022/04/15 10:02:42;;;;;;;;;;;21.50;40.60;;;;;;5142415;27;19971;-60
2022/04/15 10:05:08;;;;;;;;;;;21.60;40.70;;;;;;5129684;27;20300;-59
2022/04/15 10:07:34;;;;;;;;;;;21.50;40.90;;;;;;5138331;27;19938;-58
2022/04/15 10:10:03;;;;;;;;;;;21.60;40.90;;;;;;5140780;27;20278;-59
2022/04/15 10:12:28;;;;;;;;;;;21.50;41.00;;;;;;5147892;27;20301;-56
2022/04/15 10:14:54;;;;;;;;;;;21.50;40.70;;;;;;5142281;27;19923;-60
2022/04/15 10:17:22;;;;;;;;;;;21.60;40.60;;;;;;5147694;27;19923;-59
2022/04/15 10:19:48;;;;;;;;;;;21.60;40.60;;;;;;5142406;27;19990;-60
2022/04/15 10:22:14;;;;;;;;;;;21.60;40.70;;;;;;5142075;27;19985;-57
2022/04/15 10:24:40;;;;;;;;;;;21.60;41.00;;;;;;5146993;27;19970;-60
2022/04/15 10:27:06;;;;;;;;;;;21.50;41.20;;;;;;5118713;27;19934;-60
2022/04/15 10:29:32;;;;;;;;;;;21.60;41.00;;;;;;5141831;27;20433;-58
2022/04/15 10:32:09;;;;;;;;;;;21.60;41.00;;;;;;5147538;27;20386;-60
2022/04/15 10:34:46;;;;;;;;;;;21.60;41.00;;;;;;5142167;27;20056;-60
2022/04/15 10:37:12;;;;;;;;;;;21.50;41.20;;;;;;5141120;27;21373;-59
2022/04/15 10:39:48;;;;;;;;;;;21.50;41.30;;;;;;5147433;27;19930;-57
2022/04/15 10:42:17;;;;;;;;;;;21.50;41.20;;;;;;5141909;27;19923;-59
2022/04/15 10:44:44;;;;;;;;;;;21.50;40.90;;;;;;5137125;27;19927;-57
2022/04/15 10:47:10;;;;;;;;;;;21.50;40.70;;;;;;5146636;27;20392;-59
2022/04/15 10:49:36;;;;;;;;;;;21.50;40.50;;;;;;5141758;27;19942;-57
2022/04/15 10:52:03;;;;;;;;;;;21.60;40.40;;;;;;5128830;27;20017;-59
2022/04/15 10:54:30;;;;;;;;;;;21.50;40.30;;;;;;5141783;27;20404;-59
2022/04/15 10:56:59;;;;;;;;;;;21.60;40.10;;;;;;5141554;27;20010;-59
2022/04/15 11:02:19;;;;;;;;;;;21.60;40.10;;;;;;5137673;27;19923;-59
2022/04/15 11:04:49;;;;;;;;;;;21.50;40.10;;;;;;5139825;27;20271;-60
2022/04/15 11:07:25;;;;;;;;;;;21.50;40.00;;;;;;5147041;27;19927;-59
2022/04/15 11:09:51;;;;;;;;;;;21.60;39.70;;;;;;5122112;27;19923;-58
2022/04/15 11:12:30;;;;;;;;;;;21.60;39.40;;;;;;5141531;27;20414;-60
2022/04/15 11:14:56;;;;;;;;;;;21.50;39.20;;;;;;5147075;27;19929;-60
2022/04/15 11:17:38;;;;;;;;;;;21.50;39.10;;;;;;5141454;27;19927;-59
2022/04/15 11:20:07;;;;;;;;;;;21.60;39.00;;;;;;5139694;27;19938;-59
2022/04/15 11:22:36;;;;;;;;;;;21.50;38.90;;;;;;5143346;27;19923;-60
2022/04/15 11:25:02;;;;;;;;;;;21.50;38.80;;;;;;5122712;27;19927;-58
2022/04/15 11:27:28;;;;;;;;;;;21.60;38.60;;;;;;5141174;27;20443;-58
2022/04/15 11:29:53;;;;;;;;;;;21.50;38.70;;;;;;5146951;27;20806;-57
2022/04/15 11:32:19;;;;;;;;;;;21.60;38.80;;;;;;5141367;27;19923;-59
2022/04/15 11:34:45;;;;;;;;;;;21.30;39.20;;;;;;5146719;27;19974;-58
2022/04/15 11:37:11;;;;;;;;;;;20.70;39.90;;;;;;5141079;27;19927;-58
2022/04/15 11:39:37;;;;;;;;;;;20.70;40.80;;;;;;5136802;27;20049;-60
2022/04/15 11:42:06;;;;;;;;;;;21.70;39.30;;;;;;5126915;27;19972;-61
2022/04/15 11:44:32;;;;;;;;;;;21.90;38.90;;;;;;5141119;27;20006;-61
2022/04/15 11:47:18;;;;;;;;;;;22.00;38.70;;;;;;5141138;27;19983;-62
2022/04/15 11:49:45;;;;;;;;;;;22.30;38.30;;;;;;5146448;27;19929;-61
2022/04/15 11:52:12;;;;;;;;;;;22.30;38.30;;;;;;5141014;27;19965;-63
2022/04/15 11:54:40;;;;;;;;;;;22.40;38.00;;;;;;5121065;27;20515;-61
2022/04/15 11:57:06;;;;;;;;;;;22.50;37.80;;;;;;5143424;27;20290;-62
2022/04/15 11:59:38;;;;;;;;;;;22.60;37.40;;;;;;5138814;27;19934;-63
2022/04/15 12:02:04;;;;;;;;;;;22.60;37.10;;;;;;5142466;27;19923;-59
2022/04/15 12:04:30;;;;;;;;;;;22.70;37.20;;;;;;5145388;27;19927;-50
2022/04/15 12:06:56;;;;;;;;;;;22.00;37.80;;;;;;5140783;27;19986;-60
2022/04/15 12:09:23;;;;;;;;;;;21.30;38.80;;;;;;5146231;27;19983;-60
2022/04/15 12:11:49;;;;;;;;;;;21.50;38.60;;;;;;5140769;27;20025;-60
2022/04/15 12:14:15;;;;;;;;;;;21.70;38.10;;;;;;5140552;27;19933;-60
2022/04/15 12:16:41;;;;;;;;;;;21.80;38.00;;;;;;5121435;27;19927;-61
2022/04/15 12:19:06;;;;;;;;;;;21.80;38.10;;;;;;5140067;27;20298;-60
2022/04/15 12:21:33;;;;;;;;;;;21.80;38.20;;;;;;5144058;27;19946;-59
2022/04/15 12:24:05;;;;;;;;;;;21.80;38.00;;;;;;5149746;27;19923;-59
2022/04/15 12:26:46;;;;;;;;;;;21.80;38.10;;;;;;5143965;27;19975;-57
2022/04/15 12:32:35;;;;;;;;;;;21.70;38.00;;;;;;5149674;27;19929;-59
2022/04/15 12:35:01;;;;;;;;;;;21.70;37.90;;;;;;5034593;28;19928;-58
2022/04/15 12:37:56;;;;;;;;;;;21.70;37.80;;;;;;5123696;27;20393;-59
2022/04/15 12:40:22;;;;;;;;;;;21.70;37.60;;;;;;5149687;27;20382;-59
2022/04/15 12:42:49;;;;;;;;;;;21.70;37.50;;;;;;5143808;27;19930;-59
2022/04/15 12:45:16;;;;;;;;;;;21.70;37.30;;;;;;5143727;27;19927;-58
2022/04/15 12:47:42;;;;;;;;;;;21.70;37.30;;;;;;5149323;27;19945;-59
2022/04/15 12:50:25;;;;;;;;;;;21.80;37.20;;;;;;5123407;27;19930;-58
2022/04/15 12:52:52;;;;;;;;;;;21.80;37.20;;;;;;5139765;27;19923;-59
2022/04/15 12:55:31;;;;;;;;;;;21.70;37.30;;;;;;5147485;27;20410;-58
2022/04/15 12:57:58;;;;;;;;;;;21.70;37.20;;;;;;5143546;27;20610;-58
2022/04/15 13:00:23;;;;;;;;;;;21.70;37.00;;;;;;5143661;27;19927;-59
2022/04/15 13:02:49;;;;;;;;;;;21.80;36.80;;;;;;5130576;27;20015;-59
2022/04/15 13:05:15;;;;;;;;;;;21.70;36.80;;;;;;5143563;27;19934;-59
2022/04/15 13:07:41;;;;;;;;;;;21.70;36.80;;;;;;5149095;27;19927;-57
2022/04/15 13:10:07;;;;;;;;;;;21.80;36.50;;;;;;5142063;27;20003;-58
2022/04/15 13:12:33;;;;;;;;;;;21.80;36.20;;;;;;5139302;27;19923;-59
2022/04/15 13:14:59;;;;;;;;;;;21.80;35.90;;;;;;5148704;27;19923;-56
2022/04/15 13:17:25;;;;;;;;;;;21.80;35.60;;;;;;5143395;27;19967;-60
2022/04/15 13:19:50;;;;;;;;;;;21.90;35.40;;;;;;5143307;27;20337;-59
2022/04/15 13:22:16;;;;;;;;;;;21.80;35.60;;;;;;5148652;27;19962;-57
2022/04/15 13:24:42;;;;;;;;;;;21.80;35.70;;;;;;5143260;27;19923;-58
2022/04/15 13:27:08;;;;;;;;;;;21.80;35.80;;;;;;5128524;27;19927;-56
2022/04/15 13:29:34;;;;;;;;;;;21.80;36.00;;;;;;5141333;27;20062;-57
2022/04/15 13:32:03;;;;;;;;;;;21.80;35.90;;;;;;5140800;27;20267;-61
2022/04/15 13:34:33;;;;;;;;;;;21.80;36.00;;;;;;5148611;27;20390;-57
2022/04/15 13:37:01;;;;;;;;;;;21.80;36.00;;;;;;5142899;27;20418;-56
2022/04/15 13:39:28;;;;;;;;;;;21.90;35.90;;;;;;5143032;27;19927;-56
2022/04/15 13:41:53;;;;;;;;;;;21.80;36.10;;;;;;5148485;27;19923;-58
2022/04/15 13:44:19;;;;;;;;;;;21.80;36.00;;;;;;5124567;27;19934;-58
2022/04/15 13:46:45;;;;;;;;;;;21.80;36.00;;;;;;5142310;27;20064;-59
2022/04/15 13:49:11;;;;;;;;;;;21.80;35.90;;;;;;5143242;27;19925;-58
2022/04/15 13:51:37;;;;;;;;;;;21.80;35.80;;;;;;5142828;27;19923;-57
2022/04/15 13:56:47;;;;;;;;;;;21.80;35.60;;;;;;5147996;27;20433;-57
2022/04/15 13:59:13;;;;;;;;;;;21.90;35.50;;;;;;5142655;27;19930;-58
2022/04/15 14:01:40;;;;;;;;;;;21.90;35.60;;;;;;5148012;27;19938;-59
2022/04/15 14:04:10;;;;;;;;;;;21.80;35.90;;;;;;5142535;27;19923;-59
2022/04/15 14:06:36;;;;;;;;;;;21.60;36.50;;;;;;5138047;27;19923;-58
2022/04/15 14:09:02;;;;;;;;;;;20.90;37.20;;;;;;5146927;27;19929;-57
2022/04/15 14:11:28;;;;;;;;;;;20.80;37.10;;;;;;5142390;27;20282;-56
2022/04/15 14:13:58;;;;;;;;;;;21.00;37.90;;;;;;5142470;27;19927;-57
2022/04/15 14:16:23;;;;;;;;;;;21.30;37.20;;;;;;5147721;27;19927;-58
2022/04/15 14:18:49;;;;;;;;;;;21.50;36.80;;;;;;5142366;27;19946;-59
2022/04/15 14:21:15;;;;;;;;;;;21.50;36.50;;;;;;5147610;27;19942;-56